Time,TemperatureF,DewpointF,PressureIn,WindDirection,WindDirectionDegrees,WindSpeedMPH,WindSpeedGustMPH,Humidity,HourlyPrecipIn,Conditions,Clouds,dailyrainin,SoftwareType,DateUTC
2013-04-17 00:00:00,47.8,42.7,30.07,NW,309,5.5,7.2,82,0.00,,,0.00,VWS V14.00,2013-04-17 04:00:00,
2013-04-17 00:02:00,50.5,46.5,30.05,NW,326,6.0,8.9,86,0.00,,,0.00,VWS V14.00,2013-04-17 04:02:00,
2013-04-17 00:03:00,47.7,42.6,30.07,NW,315,4.8,7.2,82,0.00,,,0.00,VWS V14.00,2013-04-17 04:03:00,
2013-04-17 00:05:00,50.2,45.9,30.05,NNW,336,7.7,9.4,85,0.00,,,0.00,VWS V14.00,2013-04-17 04:05:00,
2013-04-17 00:06:00,50.3,45.9,30.05,WNW,284,6.6,9.4,85,0.00,,,0.00,VWS V14.00,2013-04-17 04:06:00,
2013-04-17 00:09:00,47.5,42.5,30.08,WNW,302,5.0,7.2,83,0.00,,,0.00,VWS V14.00,2013-04-17 04:09:00,
2013-04-17 00:10:00,48.2,32.0,30.25,SE,143,0.0,0.0,53,0.00,,,0.00,VWS V14.00,2013-04-17 04:10:00,
2013-04-17 00:11:00,50.0,45.3,30.06,NNW,328,6.2,10.4,84,0.00,,,0.00,VWS V14.00,2013-04-17 04:11:00,
2013-04-17 00:12:00,47.4,42.4,30.08,NNW,329,4.6,7.2,83,0.00,,,0.00,VWS V14.00,2013-04-17 04:12:00,
2013-04-17 00:15:00,47.3,42.3,30.08,NNW,330,3.3,7.2,83,0.00,,,0.00,VWS V14.00,2013-04-17 04:15:00,
2013-04-17 00:17:00,49.7,44.8,30.06,NW,318,5.7,8.1,83,0.00,,,0.00,VWS V14.00,2013-04-17 04:17:00,
2013-04-17 00:18:00,47.4,42.4,30.08,NNW,332,3.2,7.2,83,0.00,,,0.00,VWS V14.00,2013-04-17 04:18:00,
2013-04-17 00:20:00,47.9,32.7,30.25,SE,139,3.1,4.3,55,0.00,,,0.00,VWS V14.00,2013-04-17 04:20:00,
2013-04-17 00:21:00,47.2,42.3,30.08,NW,326,0.0,7.2,83,0.00,,,0.00,VWS V14.00,2013-04-17 04:21:00,
2013-04-17 00:24:00,49.4,44.4,30.06,NW,319,7.0,9.2,83,0.00,,,0.00,VWS V14.00,2013-04-17 04:24:00,
2013-04-17 00:25:00,47.1,42.2,30.08,NNW,329,3.2,7.2,83,0.00,,,0.00,VWS V14.00,2013-04-17 04:25:00,
2013-04-17 00:28:00,47.0,42.1,30.08,NNW,329,4.5,7.2,83,0.00,,,0.00,VWS V14.00,2013-04-17 04:28:00,
2013-04-17 00:30:00,49.1,44.0,30.06,NW,325,6.0,6.9,82,0.00,,,0.00,VWS V14.00,2013-04-17 04:30:00,
2013-04-17 00:31:00,46.9,42.1,30.08,NNW,330,3.5,7.2,83,0.00,,,0.00,VWS V14.00,2013-04-17 04:31:00,
2013-04-17 00:34:00,46.7,41.9,30.08,NNW,330,3.4,7.2,83,0.00,,,0.00,VWS V14.00,2013-04-17 04:34:00,
2013-04-17 00:36:00,48.9,43.7,30.07,NNW,336,6.1,7.5,82,0.00,,,0.00,VWS V14.00,2013-04-17 04:36:00,
2013-04-17 00:37:00,46.7,41.9,30.09,NNW,333,6.4,7.2,83,0.00,,,0.00,VWS V14.00,2013-04-17 04:37:00,
2013-04-17 00:40:00,46.6,41.9,30.09,NW,305,0.0,7.5,84,0.00,,,0.00,VWS V14.00,2013-04-17 04:40:00,
2013-04-17 00:42:00,48.6,43.4,30.07,NNW,328,5.6,8.6,82,0.00,,,0.00,VWS V14.00,2013-04-17 04:42:00,
2013-04-17 00:43:00,46.5,41.9,30.09,NNW,335,3.5,7.5,84,0.00,,,0.00,VWS V14.00,2013-04-17 04:43:00,
2013-04-17 00:46:00,46.4,41.8,30.09,NNW,347,5.5,7.5,84,0.00,,,0.00,VWS V14.00,2013-04-17 04:46:00,
2013-04-17 00:48:00,48.3,43.1,30.07,NNW,328,5.7,6.9,82,0.00,,,0.00,VWS V14.00,2013-04-17 04:48:00,
2013-04-17 00:49:00,46.2,41.7,30.09,NNW,343,0.0,7.5,84,0.00,,,0.00,VWS V14.00,2013-04-17 04:49:00,
2013-04-17 00:50:00,46.9,33.4,30.23,ESE,120,0.0,0.0,59,0.00,,,0.00,VWS V14.00,2013-04-17 04:50:00,
2013-04-17 00:52:00,46.1,41.7,30.09,NNW,343,0.0,7.5,85,0.00,,,0.00,VWS V14.00,2013-04-17 04:52:00,
2013-04-17 00:54:00,47.9,42.7,30.07,NW,316,4.9,7.2,82,0.00,,,0.00,VWS V14.00,2013-04-17 04:54:00,
2013-04-17 00:55:00,46.0,41.7,30.09,NNW,343,0.0,7.5,85,0.00,,,0.00,VWS V14.00,2013-04-17 04:55:00,
2013-04-17 00:58:00,46.0,41.8,30.09,NNW,343,0.0,7.5,85,0.00,,,0.00,VWS V14.00,2013-04-17 04:58:00,
2013-04-17 01:01:00,45.9,41.8,30.09,NNW,343,0.0,7.5,86,0.00,,,0.00,VWS V14.00,2013-04-17 05:01:00,
2013-04-17 01:04:00,45.9,41.9,30.09,NNW,343,0.0,7.5,86,0.00,,,0.00,VWS V14.00,2013-04-17 05:04:00,
2013-04-17 01:07:00,45.8,41.9,30.10,NNW,343,0.0,7.5,86,0.00,,,0.00,VWS V14.00,2013-04-17 05:07:00,
2013-04-17 01:10:00,45.6,41.8,30.10,NNW,343,0.0,7.5,86,0.00,,,0.00,VWS V14.00,2013-04-17 05:10:00,
2013-04-17 01:13:00,45.6,41.9,30.10,NNW,343,0.0,7.5,87,0.00,,,0.00,VWS V14.00,2013-04-17 05:13:00,
2013-04-17 01:16:00,45.4,41.7,30.10,NNW,343,0.0,7.5,87,0.00,,,0.00,VWS V14.00,2013-04-17 05:16:00,
2013-04-17 01:19:00,45.2,41.6,30.10,NNW,343,0.0,7.5,87,0.00,,,0.00,VWS V14.00,2013-04-17 05:19:00,
2013-04-17 01:22:00,45.2,41.7,30.10,NW,316,0.0,7.5,87,0.00,,,0.00,VWS V14.00,2013-04-17 05:22:00,
2013-04-17 01:25:00,45.1,41.7,30.09,NW,316,0.0,7.5,88,0.00,,,0.00,VWS V14.00,2013-04-17 05:25:00,
2013-04-17 01:28:00,45.1,41.7,30.09,NNW,342,3.0,7.5,88,0.00,,,0.00,VWS V14.00,2013-04-17 05:28:00,
2013-04-17 01:31:00,44.9,41.6,30.09,NNW,338,3.3,7.5,88,0.00,,,0.00,VWS V14.00,2013-04-17 05:31:00,
2013-04-17 01:34:00,45.0,41.7,30.10,North,349,3.2,7.5,88,0.00,,,0.00,VWS V14.00,2013-04-17 05:34:00,
2013-04-17 01:37:00,44.8,41.5,30.09,NNW,345,4.2,7.5,88,0.00,,,0.00,VWS V14.00,2013-04-17 05:37:00,
2013-04-17 01:40:00,44.8,41.5,30.09,NNW,342,4.2,7.5,88,0.00,,,0.00,VWS V14.00,2013-04-17 05:40:00,
2013-04-17 01:43:00,44.8,41.6,30.09,NNW,329,0.0,7.5,88,0.00,,,0.00,VWS V14.00,2013-04-17 05:43:00,
2013-04-17 01:46:00,44.7,41.5,30.09,NNW,329,0.0,7.5,88,0.00,,,0.00,VWS V14.00,2013-04-17 05:46:00,
2013-04-17 01:49:00,44.6,41.5,30.09,NNW,329,0.0,7.5,89,0.00,,,0.00,VWS V14.00,2013-04-17 05:49:00,
2013-04-17 01:52:00,44.7,41.7,30.10,NNW,329,0.0,7.5,89,0.00,,,0.00,VWS V14.00,2013-04-17 05:52:00,
2013-04-17 01:55:00,44.5,41.6,30.10,NNW,329,0.0,7.5,90,0.00,,,0.00,VWS V14.00,2013-04-17 05:55:00,
2013-04-17 01:58:00,44.5,41.7,30.10,NNW,329,0.0,7.5,90,0.00,,,0.00,VWS V14.00,2013-04-17 05:58:00,
2013-04-17 02:01:00,44.5,41.8,30.10,NNW,329,0.0,7.5,90,0.00,,,0.00,VWS V14.00,2013-04-17 06:01:00,
2013-04-17 02:04:00,44.5,41.8,30.10,NNW,329,0.0,7.5,90,0.00,,,0.00,VWS V14.00,2013-04-17 06:04:00,
2013-04-17 02:07:00,44.4,41.7,30.10,NNW,329,0.0,7.5,90,0.00,,,0.00,VWS V14.00,2013-04-17 06:07:00,
2013-04-17 02:10:00,44.4,41.7,30.10,NNW,329,0.0,7.5,90,0.00,,,0.00,VWS V14.00,2013-04-17 06:10:00,
2013-04-17 02:13:00,44.4,41.7,30.10,North,354,4.3,7.5,90,0.00,,,0.00,VWS V14.00,2013-04-17 06:13:00,
2013-04-17 02:16:00,44.4,41.7,30.10,North,350,0.0,7.5,90,0.00,,,0.00,VWS V14.00,2013-04-17 06:16:00,
2013-04-17 02:19:00,44.3,41.6,30.10,North,350,0.0,7.5,90,0.00,,,0.00,VWS V14.00,2013-04-17 06:19:00,
2013-04-17 02:22:00,44.2,41.5,30.10,NNW,328,0.0,7.5,90,0.00,,,0.00,VWS V14.00,2013-04-17 06:22:00,
2013-04-17 02:25:00,44.1,41.5,30.10,NNW,339,0.0,7.5,90,0.00,,,0.00,VWS V14.00,2013-04-17 06:25:00,
2013-04-17 02:28:00,44.1,41.5,30.10,WNW,288,0.0,7.5,90,0.00,,,0.00,VWS V14.00,2013-04-17 06:28:00,
2013-04-17 02:31:00,44.1,41.5,30.10,WNW,288,0.0,7.5,90,0.00,,,0.00,VWS V14.00,2013-04-17 06:31:00,
2013-04-17 02:34:00,44.1,41.5,30.10,WNW,288,0.0,7.5,90,0.00,,,0.00,VWS V14.00,2013-04-17 06:34:00,
2013-04-17 02:37:00,43.9,41.3,30.10,NW,322,2.4,7.5,90,0.00,,,0.00,VWS V14.00,2013-04-17 06:37:00,
2013-04-17 02:40:00,43.8,41.2,30.10,WSW,257,0.0,7.8,90,0.00,,,0.00,VWS V14.00,2013-04-17 06:40:00,
2013-04-17 02:43:00,43.8,41.2,30.11,WSW,257,0.0,7.8,90,0.00,,,0.00,VWS V14.00,2013-04-17 06:43:00,
2013-04-17 02:46:00,43.6,41.0,30.11,WSW,257,0.0,7.8,90,0.00,,,0.00,VWS V14.00,2013-04-17 06:46:00,
2013-04-17 02:49:00,43.5,40.8,30.11,WSW,257,0.0,7.8,90,0.00,,,0.00,VWS V14.00,2013-04-17 06:49:00,
2013-04-17 02:52:00,43.5,40.8,30.11,WSW,257,0.0,7.8,90,0.00,,,0.00,VWS V14.00,2013-04-17 06:52:00,
2013-04-17 02:55:00,43.6,41.0,30.11,WSW,257,0.0,7.8,90,0.00,,,0.00,VWS V14.00,2013-04-17 06:55:00,
2013-04-17 02:58:00,43.5,40.9,30.11,WSW,257,0.0,7.8,91,0.00,,,0.00,VWS V14.00,2013-04-17 06:58:00,
2013-04-17 03:01:00,43.5,40.9,30.11,WSW,257,0.0,7.8,91,0.00,,,0.00,VWS V14.00,2013-04-17 07:01:00,
2013-04-17 03:04:00,43.4,40.9,30.11,WSW,257,0.0,7.8,91,0.00,,,0.00,VWS V14.00,2013-04-17 07:04:00,
2013-04-17 03:08:00,43.4,40.9,30.11,WSW,257,0.0,7.8,91,0.00,,,0.00,VWS V14.00,2013-04-17 07:08:00,
2013-04-17 03:11:00,43.4,40.9,30.11,WSW,257,0.0,7.8,91,0.00,,,0.00,VWS V14.00,2013-04-17 07:11:00,
2013-04-17 03:14:00,43.4,40.9,30.11,WSW,257,0.0,7.8,91,0.00,,,0.00,VWS V14.00,2013-04-17 07:14:00,
2013-04-17 03:17:00,43.3,40.8,30.11,WSW,257,0.0,7.8,91,0.00,,,0.00,VWS V14.00,2013-04-17 07:17:00,
2013-04-17 03:20:00,43.2,40.7,30.12,WSW,257,0.0,7.8,91,0.00,,,0.00,VWS V14.00,2013-04-17 07:20:00,
2013-04-17 03:23:00,43.3,40.7,30.12,WSW,257,0.0,7.8,90,0.00,,,0.00,VWS V14.00,2013-04-17 07:23:00,
2013-04-17 03:26:00,43.2,40.7,30.12,WSW,257,0.0,7.8,91,0.00,,,0.00,VWS V14.00,2013-04-17 07:26:00,
2013-04-17 03:29:00,43.2,40.7,30.12,WSW,257,0.0,7.8,91,0.00,,,0.00,VWS V14.00,2013-04-17 07:29:00,
2013-04-17 03:32:00,43.1,40.6,30.12,WSW,257,0.0,7.8,91,0.00,,,0.00,VWS V14.00,2013-04-17 07:32:00,
2013-04-17 03:35:00,43.0,40.5,30.12,WSW,257,0.0,7.8,91,0.00,,,0.00,VWS V14.00,2013-04-17 07:35:00,
2013-04-17 03:38:00,43.1,40.6,30.12,WSW,257,0.0,7.8,91,0.00,,,0.00,VWS V14.00,2013-04-17 07:38:00,
2013-04-17 03:41:00,43.1,40.6,30.12,WSW,257,0.0,7.8,91,0.00,,,0.00,VWS V14.00,2013-04-17 07:41:00,
2013-04-17 03:44:00,43.0,40.4,30.12,WSW,257,0.0,7.8,91,0.00,,,0.00,VWS V14.00,2013-04-17 07:44:00,
2013-04-17 03:47:00,43.0,40.4,30.12,WSW,257,0.0,7.8,90,0.00,,,0.00,VWS V14.00,2013-04-17 07:47:00,
2013-04-17 03:50:00,42.8,40.2,30.12,WSW,257,0.0,7.8,90,0.00,,,0.00,VWS V14.00,2013-04-17 07:50:00,
2013-04-17 03:53:00,42.7,40.0,30.12,WSW,257,0.0,7.8,90,0.00,,,0.00,VWS V14.00,2013-04-17 07:53:00,
2013-04-17 03:56:00,42.5,39.8,30.12,WSW,257,0.0,7.8,90,0.00,,,0.00,VWS V14.00,2013-04-17 07:56:00,
2013-04-17 03:59:00,42.3,39.6,30.12,WSW,257,0.0,7.8,90,0.00,,,0.00,VWS V14.00,2013-04-17 07:59:00,
2013-04-17 04:02:00,42.3,39.6,30.12,WSW,257,0.0,7.8,90,0.00,,,0.00,VWS V14.00,2013-04-17 08:02:00,
2013-04-17 04:05:00,42.1,39.5,30.12,WSW,257,0.0,7.8,90,0.00,,,0.00,VWS V14.00,2013-04-17 08:05:00,
2013-04-17 04:11:00,41.8,39.2,30.13,WSW,257,0.0,7.8,90,0.00,,,0.00,VWS V14.00,2013-04-17 08:11:00,
2013-04-17 04:14:00,41.6,39.0,30.13,WSW,257,0.0,7.8,90,0.00,,,0.00,VWS V14.00,2013-04-17 08:14:00,
2013-04-17 04:17:00,41.4,38.8,30.13,WSW,257,0.0,7.8,90,0.00,,,0.00,VWS V14.00,2013-04-17 08:17:00,
2013-04-17 04:20:00,41.1,38.6,30.13,WSW,257,0.0,7.8,91,0.00,,,0.00,VWS V14.00,2013-04-17 08:20:00,
2013-04-17 04:23:00,41.0,38.5,30.13,WSW,257,0.0,7.8,91,0.00,,,0.00,VWS V14.00,2013-04-17 08:23:00,
2013-04-17 04:29:00,40.7,38.2,30.13,NW,315,0.0,7.8,91,0.00,,,0.00,VWS V14.00,2013-04-17 08:29:00,
2013-04-17 04:35:00,40.4,37.9,30.13,NW,315,0.0,7.8,91,0.00,,,0.00,VWS V14.00,2013-04-17 08:35:00,
2013-04-17 04:50:00,39.8,36.8,30.13,NNW,343,0.0,7.8,89,0.00,,,0.00,VWS V14.00,2013-04-17 08:50:00,
2013-04-17 04:53:00,39.6,36.6,30.13,NW,315,0.0,7.8,89,0.00,,,0.00,VWS V14.00,2013-04-17 08:53:00,
2013-04-17 04:56:00,39.5,36.4,30.13,NE,37,0.0,7.8,89,0.00,,,0.00,VWS V14.00,2013-04-17 08:56:00,
2013-04-17 04:59:00,39.5,36.4,30.13,NE,35,0.0,7.8,89,0.00,,,0.00,VWS V14.00,2013-04-17 08:59:00,
2013-04-17 05:04:00,41.9,39.3,30.13,WSW,257,0.0,7.8,90,0.00,,,0.00,VWS V14.00,2013-04-17 09:04:00,
2013-04-17 05:05:00,39.1,35.9,30.13,NE,35,0.0,7.8,88,0.00,,,0.00,VWS V14.00,2013-04-17 09:05:00,
2013-04-17 05:17:00,38.8,35.4,30.14,NE,35,0.0,7.8,87,0.00,,,0.00,VWS V14.00,2013-04-17 09:17:00,
2013-04-17 05:20:00,38.6,35.2,30.14,NE,35,0.0,7.8,87,0.00,,,0.00,VWS V14.00,2013-04-17 09:20:00,
2013-04-17 05:22:00,40.9,38.4,30.13,NW,315,0.0,7.8,91,0.00,,,0.00,VWS V14.00,2013-04-17 09:22:00,
2013-04-17 05:23:00,38.7,35.3,30.14,NE,35,0.0,7.8,87,0.00,,,0.00,VWS V14.00,2013-04-17 09:23:00,
2013-04-17 05:26:00,38.6,35.2,30.14,NE,35,0.0,7.8,87,0.00,,,0.00,VWS V14.00,2013-04-17 09:26:00,
2013-04-17 05:28:00,40.5,38.0,30.13,NW,315,0.0,7.8,91,0.00,,,0.00,VWS V14.00,2013-04-17 09:28:00,
2013-04-17 05:34:00,40.3,37.7,30.13,NW,315,0.0,7.8,90,0.00,,,0.00,VWS V14.00,2013-04-17 09:34:00,
2013-04-17 05:40:00,40.0,37.2,30.13,NNW,339,0.0,7.8,90,0.00,,,0.00,VWS V14.00,2013-04-17 09:40:00,
2013-04-17 05:59:00,39.4,36.2,30.13,NE,35,0.0,7.8,88,0.00,,,0.00,VWS V14.00,2013-04-17 09:59:00,
2013-04-17 06:05:00,39.0,35.8,30.14,NE,35,0.0,7.8,88,0.00,,,0.00,VWS V14.00,2013-04-17 10:05:00,
2013-04-17 06:11:00,38.8,35.5,30.14,NE,35,0.0,7.8,88,0.00,,,0.00,VWS V14.00,2013-04-17 10:11:00,
2013-04-17 06:24:00,37.9,34.6,30.16,East,86,0.0,7.8,88,0.00,,,0.00,VWS V14.00,2013-04-17 10:24:00,
2013-04-17 06:26:00,38.4,35.0,30.14,NE,35,0.0,7.8,87,0.00,,,0.00,VWS V14.00,2013-04-17 10:26:00,
2013-04-17 06:27:00,38.0,34.8,30.16,East,86,0.0,7.8,88,0.00,,,0.00,VWS V14.00,2013-04-17 10:27:00,
2013-04-17 06:32:00,38.1,34.8,30.14,NE,35,0.0,7.8,88,0.00,,,0.00,VWS V14.00,2013-04-17 10:32:00,
2013-04-17 06:38:00,38.2,35.0,30.14,NE,35,0.0,7.8,88,0.00,,,0.00,VWS V14.00,2013-04-17 10:38:00,
2013-04-17 06:44:00,37.9,34.8,30.15,NE,35,0.0,7.8,88,0.00,,,0.00,VWS V14.00,2013-04-17 10:44:00,
2013-04-17 06:50:00,37.7,34.6,30.15,NE,35,0.0,7.8,88,0.00,,,0.00,VWS V14.00,2013-04-17 10:50:00,
2013-04-17 06:56:00,37.6,34.4,30.15,East,86,0.0,7.8,88,0.00,,,0.00,VWS V14.00,2013-04-17 10:56:00,
2013-04-17 07:02:00,37.7,34.6,30.15,East,86,0.0,7.8,88,0.00,,,0.00,VWS V14.00,2013-04-17 11:02:00,
2013-04-17 07:08:00,37.7,34.6,30.16,East,86,0.0,7.8,89,0.00,,,0.00,VWS V14.00,2013-04-17 11:08:00,
2013-04-17 07:14:00,37.8,34.6,30.16,East,86,0.0,7.8,88,0.00,,,0.00,VWS V14.00,2013-04-17 11:14:00,
2013-04-17 07:26:00,38.1,35.1,30.16,East,86,0.0,7.8,89,0.00,,,0.00,VWS V14.00,2013-04-17 11:26:00,
2013-04-17 07:32:00,38.3,35.5,30.17,East,86,0.0,7.8,89,0.00,,,0.00,VWS V14.00,2013-04-17 11:32:00,
2013-04-17 07:38:00,38.8,35.5,30.17,East,86,0.0,7.8,88,0.00,,,0.00,VWS V14.00,2013-04-17 11:38:00,
2013-04-17 07:44:00,39.1,35.4,30.17,East,86,0.0,7.8,86,0.00,,,0.00,VWS V14.00,2013-04-17 11:44:00,
2013-04-17 07:50:00,39.4,35.3,30.18,North,3,0.0,7.8,85,0.00,,,0.00,VWS V14.00,2013-04-17 11:50:00,
2013-04-17 07:56:00,39.9,35.1,30.18,NW,312,2.6,7.8,83,0.00,,,0.00,VWS V14.00,2013-04-17 11:56:00,
2013-04-17 08:03:00,40.4,35.0,30.18,NNW,332,5.4,9.8,81,0.00,,,0.00,VWS V14.00,2013-04-17 12:03:00,
2013-04-17 08:09:00,40.8,34.9,30.18,NW,311,3.3,9.8,79,0.00,,,0.00,VWS V14.00,2013-04-17 12:09:00,
2013-04-17 08:15:00,41.4,35.0,30.18,WNW,294,0.0,9.8,78,0.00,,,0.00,VWS V14.00,2013-04-17 12:15:00,
2013-04-17 08:21:00,41.9,35.0,30.18,West,281,2.9,9.8,76,0.00,,,0.00,VWS V14.00,2013-04-17 12:21:00,
2013-04-17 08:27:00,42.3,34.8,30.18,West,274,0.0,9.8,74,0.00,,,0.00,VWS V14.00,2013-04-17 12:27:00,
2013-04-17 08:33:00,42.8,34.8,30.18,WNW,294,0.0,10.3,73,0.00,,,0.00,VWS V14.00,2013-04-17 12:33:00,
2013-04-17 08:39:00,43.2,34.3,30.19,NW,325,2.1,10.3,71,0.00,,,0.00,VWS V14.00,2013-04-17 12:39:00,
2013-04-17 08:45:00,43.9,34.7,30.19,NW,322,4.5,10.3,70,0.00,,,0.00,VWS V14.00,2013-04-17 12:45:00,
2013-04-17 08:51:00,44.4,34.3,30.19,WNW,285,4.7,10.7,67,0.00,,,0.00,VWS V14.00,2013-04-17 12:51:00,
2013-04-17 08:57:00,45.1,34.5,30.19,NW,315,2.5,10.7,66,0.00,,,0.00,VWS V14.00,2013-04-17 12:57:00,
2013-04-17 09:03:00,45.6,34.4,30.19,NNE,15,2.7,12.9,65,0.00,,,0.00,VWS V14.00,2013-04-17 13:03:00,
2013-04-17 09:09:00,46.1,34.3,30.19,North,4,3.0,12.9,63,0.00,,,0.00,VWS V14.00,2013-04-17 13:09:00,
2013-04-17 09:15:00,46.3,33.8,30.20,NNW,342,2.7,13.4,61,0.00,,,0.00,VWS V14.00,2013-04-17 13:15:00,
2013-04-17 09:21:00,46.7,33.6,30.20,WNW,287,2.9,13.4,60,0.00,,,0.00,VWS V14.00,2013-04-17 13:21:00,
2013-04-17 09:27:00,47.2,33.5,30.20,West,273,3.1,13.4,59,0.00,,,0.00,VWS V14.00,2013-04-17 13:27:00,
2013-04-17 09:33:00,47.6,33.7,30.20,SW,236,0.0,13.4,58,0.00,,,0.00,VWS V14.00,2013-04-17 13:33:00,
2013-04-17 09:39:00,48.3,34.2,30.20,SW,236,0.0,13.4,58,0.00,,,0.00,VWS V14.00,2013-04-17 13:39:00,
2013-04-17 09:45:00,49.0,34.5,30.20,SW,236,0.0,13.4,57,0.00,,,0.00,VWS V14.00,2013-04-17 13:45:00,
2013-04-17 09:51:00,49.7,34.6,30.20,NNW,339,2.4,13.4,56,0.00,,,0.00,VWS V14.00,2013-04-17 13:51:00,
2013-04-17 09:57:00,50.3,34.7,30.20,East,101,0.0,13.4,55,0.00,,,0.00,VWS V14.00,2013-04-17 13:57:00,
2013-04-17 10:03:00,51.2,35.3,30.20,NNW,338,6.0,13.4,54,0.00,,,0.00,VWS V14.00,2013-04-17 14:03:00,
2013-04-17 10:09:00,51.7,35.1,30.21,NW,323,4.9,13.4,53,0.00,,,0.00,VWS V14.00,2013-04-17 14:09:00,
2013-04-17 10:16:00,51.8,34.2,30.21,NW,307,3.4,13.4,51,0.00,,,0.00,VWS V14.00,2013-04-17 14:16:00,
2013-04-17 10:22:00,51.9,34.3,30.21,NNW,345,0.0,13.4,51,0.00,,,0.00,VWS V14.00,2013-04-17 14:22:00,
2013-04-17 10:28:00,52.7,34.8,30.21,West,270,5.1,13.4,50,0.00,,,0.00,VWS V14.00,2013-04-17 14:28:00,
2013-04-17 10:34:00,53.3,34.8,30.21,NNW,338,0.0,13.4,49,0.00,,,0.00,VWS V14.00,2013-04-17 14:34:00,
2013-04-17 10:40:00,53.9,34.5,30.21,NW,304,0.0,13.4,48,0.00,,,0.00,VWS V14.00,2013-04-17 14:40:00,
2013-04-17 10:46:00,54.7,34.6,30.21,West,271,4.2,13.4,46,0.00,,,0.00,VWS V14.00,2013-04-17 14:46:00,
2013-04-17 10:52:00,54.9,33.6,30.21,WNW,300,0.0,13.4,44,0.00,,,0.00,VWS V14.00,2013-04-17 14:52:00,
2013-04-17 10:58:00,54.9,33.5,30.21,NW,322,6.1,13.4,44,0.00,,,0.00,VWS V14.00,2013-04-17 14:58:00,
2013-04-17 11:04:00,55.1,33.1,30.22,NNW,333,5.6,13.4,43,0.00,,,0.00,VWS V14.00,2013-04-17 15:04:00,
2013-04-17 11:10:00,55.3,33.0,30.21,North,357,4.8,13.4,43,0.00,,,0.00,VWS V14.00,2013-04-17 15:10:00,
2013-04-17 11:16:00,55.1,32.1,30.21,West,264,3.2,13.4,41,0.00,,,0.00,VWS V14.00,2013-04-17 15:16:00,
2013-04-17 11:22:00,55.4,32.4,30.21,NNW,335,6.3,13.4,42,0.00,,,0.00,VWS V14.00,2013-04-17 15:22:00,
2013-04-17 11:28:00,55.4,31.4,30.21,West,266,3.2,13.4,40,0.00,,,0.00,VWS V14.00,2013-04-17 15:28:00,
2013-04-17 11:34:00,55.7,31.8,30.22,NW,311,0.0,13.4,40,0.00,,,0.00,VWS V14.00,2013-04-17 15:34:00,
2013-04-17 11:40:00,55.9,31.2,30.22,NNW,330,4.6,13.4,39,0.00,,,0.00,VWS V14.00,2013-04-17 15:40:00,
2013-04-17 11:46:00,56.1,31.1,30.22,NNW,329,0.0,13.4,38,0.00,,,0.00,VWS V14.00,2013-04-17 15:46:00,
2013-04-17 11:52:00,56.4,31.2,30.21,NW,319,7.5,13.4,38,0.00,,,0.00,VWS V14.00,2013-04-17 15:52:00,
2013-04-17 11:58:00,56.3,30.6,30.21,NNW,335,4.9,13.4,37,0.00,,,0.00,VWS V14.00,2013-04-17 15:58:00,
2013-04-17 12:04:00,56.6,30.4,30.21,NNW,347,6.7,13.4,37,0.00,,,0.00,VWS V14.00,2013-04-17 16:04:00,
2013-04-17 12:10:00,56.4,29.7,30.21,North,357,4.3,13.4,36,0.00,,,0.00,VWS V14.00,2013-04-17 16:10:00,
2013-04-17 12:16:00,56.7,30.4,30.21,NNW,330,0.0,13.4,36,0.00,,,0.00,VWS V14.00,2013-04-17 16:16:00,
2013-04-17 12:22:00,57.1,30.8,30.21,North,356,0.0,14.9,37,0.00,,,0.00,VWS V14.00,2013-04-17 16:22:00,
2013-04-17 12:28:00,57.3,30.3,30.21,WSW,248,0.0,14.9,36,0.00,,,0.00,VWS V14.00,2013-04-17 16:28:00,
2013-04-17 12:34:00,57.5,30.1,30.21,NW,325,4.8,16.7,35,0.00,,,0.00,VWS V14.00,2013-04-17 16:34:00,
2013-04-17 12:40:00,57.5,29.8,30.20,NNW,346,8.4,16.7,35,0.00,,,0.00,VWS V14.00,2013-04-17 16:40:00,
2013-04-17 12:46:00,57.4,29.7,30.21,NNW,339,5.7,16.7,35,0.00,,,0.00,VWS V14.00,2013-04-17 16:46:00,
2013-04-17 12:52:00,57.7,29.5,30.21,NW,323,6.5,16.7,34,0.00,,,0.00,VWS V14.00,2013-04-17 16:52:00,
2013-04-17 12:58:00,58.2,29.9,30.21,NW,305,4.3,16.7,34,0.00,,,0.00,VWS V14.00,2013-04-17 16:58:00,
2013-04-17 13:04:00,58.7,29.7,30.21,North,7,4.2,16.7,33,0.00,,,0.00,VWS V14.00,2013-04-17 17:04:00,
2013-04-17 13:11:00,59.0,29.1,30.20,NNW,332,3.2,16.7,32,0.00,,,0.00,VWS V14.00,2013-04-17 17:11:00,
2013-04-17 13:17:00,58.8,27.9,30.21,NW,315,7.6,16.7,31,0.00,,,0.00,VWS V14.00,2013-04-17 17:17:00,
2013-04-17 13:23:00,58.9,27.3,30.20,NNW,340,7.8,16.7,30,0.00,,,0.00,VWS V14.00,2013-04-17 17:23:00,
2013-04-17 13:29:00,58.8,27.8,30.20,NNW,336,9.1,16.7,30,0.00,,,0.00,VWS V14.00,2013-04-17 17:29:00,
2013-04-17 13:35:00,58.9,26.8,30.20,NW,316,6.3,16.7,29,0.00,,,0.00,VWS V14.00,2013-04-17 17:35:00,
2013-04-17 13:41:00,58.7,26.2,30.21,NNW,328,7.3,16.7,29,0.00,,,0.00,VWS V14.00,2013-04-17 17:41:00,
2013-04-17 13:47:00,58.9,26.6,30.21,NNW,342,8.5,16.7,29,0.00,,,0.00,VWS V14.00,2013-04-17 17:47:00,
2013-04-17 13:53:00,58.7,25.9,30.21,NNW,342,5.3,16.7,28,0.00,,,0.00,VWS V14.00,2013-04-17 17:53:00,
2013-04-17 13:59:00,58.8,25.5,30.21,NW,325,9.3,16.7,28,0.00,,,0.00,VWS V14.00,2013-04-17 17:59:00,
2013-04-17 14:05:00,58.8,26.1,30.21,NNW,338,0.0,16.7,28,0.00,,,0.00,VWS V14.00,2013-04-17 18:05:00,
2013-04-17 14:11:00,59.2,26.6,30.21,WNW,287,0.0,16.7,29,0.00,,,0.00,VWS V14.00,2013-04-17 18:11:00,
2013-04-17 14:17:00,59.4,26.2,30.21,North,359,4.3,16.7,28,0.00,,,0.00,VWS V14.00,2013-04-17 18:17:00,
2013-04-17 14:23:00,59.4,25.7,30.22,NW,321,8.0,16.7,27,0.00,,,0.00,VWS V14.00,2013-04-17 18:23:00,
2013-04-17 14:29:00,59.4,25.1,30.21,NW,319,6.8,16.7,27,0.00,,,0.00,VWS V14.00,2013-04-17 18:29:00,
2013-04-17 14:35:00,59.3,24.1,30.22,NNW,338,6.0,16.7,26,0.00,,,0.00,VWS V14.00,2013-04-17 18:35:00,
2013-04-17 14:41:00,59.4,24.1,30.22,NNW,345,6.5,16.7,26,0.00,,,0.00,VWS V14.00,2013-04-17 18:41:00,
2013-04-17 14:47:00,59.4,23.4,30.22,NW,307,3.4,16.7,25,0.00,,,0.00,VWS V14.00,2013-04-17 18:47:00,
2013-04-17 14:53:00,59.5,22.4,30.23,NW,312,5.2,16.7,24,0.00,,,0.00,VWS V14.00,2013-04-17 18:53:00,
2013-04-17 14:59:00,59.5,23.0,30.23,NNW,329,7.8,16.7,24,0.00,,,0.00,VWS V14.00,2013-04-17 18:59:00,
2013-04-17 15:05:00,59.5,22.6,30.23,NW,314,12.2,17.3,24,0.00,,,0.00,VWS V14.00,2013-04-17 19:05:00,
2013-04-17 15:11:00,59.1,20.2,30.23,NNE,13,13.3,17.3,22,0.00,,,0.00,VWS V14.00,2013-04-17 19:11:00,
2013-04-17 15:17:00,59.2,20.5,30.23,West,262,4.8,17.3,22,0.00,,,0.00,VWS V14.00,2013-04-17 19:17:00,
2013-04-17 15:23:00,59.4,20.9,30.23,NNW,330,9.9,17.3,22,0.00,,,0.00,VWS V14.00,2013-04-17 19:23:00,
2013-04-17 15:30:00,59.3,20.4,30.23,NNW,329,7.8,17.3,22,0.00,,,0.00,VWS V14.00,2013-04-17 19:30:00,
2013-04-17 15:36:00,59.4,20.5,30.23,NNW,342,8.0,17.3,22,0.00,,,0.00,VWS V14.00,2013-04-17 19:36:00,
2013-04-17 15:42:00,59.5,21.0,30.23,NW,323,4.8,17.3,22,0.00,,,0.00,VWS V14.00,2013-04-17 19:42:00,
2013-04-17 15:48:00,59.8,20.8,30.23,WNW,297,4.8,17.3,22,0.00,,,0.00,VWS V14.00,2013-04-17 19:48:00,
2013-04-17 15:54:00,60.0,19.8,30.23,West,267,0.0,17.3,21,0.00,,,0.00,VWS V14.00,2013-04-17 19:54:00,
2013-04-17 16:00:00,60.0,19.2,30.23,NNW,339,5.2,17.3,20,0.00,,,0.00,VWS V14.00,2013-04-17 20:00:00,
2013-04-17 16:06:00,60.0,19.3,30.23,NNW,332,5.0,17.3,20,0.00,,,0.00,VWS V14.00,2013-04-17 20:06:00,
2013-04-17 16:12:00,60.1,19.6,30.23,SW,225,10.8,17.3,21,0.00,,,0.00,VWS V14.00,2013-04-17 20:12:00,
2013-04-17 16:18:00,60.4,19.9,30.23,NW,312,4.7,17.3,21,0.00,,,0.00,VWS V14.00,2013-04-17 20:18:00,
2013-04-17 16:24:00,60.4,19.3,30.23,NW,312,4.8,17.3,20,0.00,,,0.00,VWS V14.00,2013-04-17 20:24:00,
2013-04-17 16:30:00,60.7,19.6,30.23,SW,221,4.1,17.3,20,0.00,,,0.00,VWS V14.00,2013-04-17 20:30:00,
2013-04-17 16:39:00,61.9,20.3,30.24,SW,214,0.0,17.3,20,0.00,,,0.00,VWS V14.00,2013-04-17 20:39:00,
2013-04-17 16:45:00,63.3,20.0,30.24,NNE,25,0.0,17.3,19,0.00,,,0.00,VWS V14.00,2013-04-17 20:45:00,
2013-04-17 16:51:00,65.8,18.8,30.25,SSE,155,4.7,17.3,16,0.00,,,0.00,VWS V14.00,2013-04-17 20:51:00,
2013-04-17 16:57:00,68.1,17.6,30.25,NNW,335,4.5,17.3,14,0.00,,,0.00,VWS V14.00,2013-04-17 20:57:00,
2013-04-17 17:03:00,70.7,16.6,30.25,South,169,2.7,17.3,12,0.00,,,0.00,VWS V14.00,2013-04-17 21:03:00,
2013-04-17 17:09:00,73.0,13.9,30.24,SE,136,0.0,17.3,10,0.00,,,0.00,VWS V14.00,2013-04-17 21:09:00,
2013-04-17 17:15:00,74.4,11.2,30.25,South,180,0.0,17.3,9,0.00,,,0.00,VWS V14.00,2013-04-17 21:15:00,
2013-04-17 17:21:00,74.3,9.2,30.25,WNW,292,2.9,17.3,8,0.00,,,0.00,VWS V14.00,2013-04-17 21:21:00,
2013-04-17 17:27:00,74.3,10.6,30.26,SE,135,0.0,17.3,8,0.00,,,0.00,VWS V14.00,2013-04-17 21:27:00,
2013-04-17 17:33:00,73.7,8.8,30.26,NW,322,0.0,17.3,8,0.00,,,0.00,VWS V14.00,2013-04-17 21:33:00,
2013-04-17 17:40:00,72.3,9.1,30.26,South,186,4.3,17.3,8,0.00,,,0.00,VWS V14.00,2013-04-17 21:40:00,
2013-04-17 17:46:00,70.4,10.6,30.26,WSW,249,0.0,17.3,10,0.00,,,0.00,VWS V14.00,2013-04-17 21:46:00,
2013-04-17 17:52:00,68.3,13.8,30.26,SSE,160,0.0,17.3,12,0.00,,,0.00,VWS V14.00,2013-04-17 21:52:00,
2013-04-17 17:58:00,66.2,14.1,30.27,NW,323,0.0,17.3,13,0.00,,,0.00,VWS V14.00,2013-04-17 21:58:00,
2013-04-17 18:04:00,64.4,17.1,30.27,NW,323,0.0,17.3,16,0.00,,,0.00,VWS V14.00,2013-04-17 22:04:00,
2013-04-17 18:10:00,62.8,17.6,30.27,NW,318,0.0,17.3,17,0.00,,,0.00,VWS V14.00,2013-04-17 22:10:00,
2013-04-17 18:19:00,61.2,17.8,30.27,South,181,0.0,17.3,18,0.00,,,0.00,VWS V14.00,2013-04-17 22:19:00,
2013-04-17 18:25:00,60.0,19.1,30.28,South,181,0.0,17.3,20,0.00,,,0.00,VWS V14.00,2013-04-17 22:25:00,
2013-04-17 18:31:00,59.2,20.1,30.28,South,181,0.0,17.3,22,0.00,,,0.00,VWS V14.00,2013-04-17 22:31:00,
2013-04-17 18:37:00,58.5,20.8,30.27,South,181,0.0,17.3,23,0.00,,,0.00,VWS V14.00,2013-04-17 22:37:00,
2013-04-17 18:43:00,57.8,21.0,30.28,South,181,0.0,17.3,24,0.00,,,0.00,VWS V14.00,2013-04-17 22:43:00,
2013-04-17 18:49:00,57.8,22.1,30.28,South,181,0.0,17.3,25,0.00,,,0.00,VWS V14.00,2013-04-17 22:49:00,
2013-04-17 18:55:00,57.7,22.0,30.28,WSW,249,0.0,17.3,25,0.00,,,0.00,VWS V14.00,2013-04-17 22:55:00,
2013-04-17 19:05:00,57.3,22.5,30.28,WSW,249,0.0,17.3,26,0.00,,,0.00,VWS V14.00,2013-04-17 23:05:00,
2013-04-17 19:11:00,57.1,23.1,30.28,SW,236,0.0,17.3,27,0.00,,,0.00,VWS V14.00,2013-04-17 23:11:00,
2013-04-17 19:17:00,56.7,22.9,30.28,SW,224,0.0,17.3,27,0.00,,,0.00,VWS V14.00,2013-04-17 23:17:00,
2013-04-17 19:23:00,55.6,21.2,30.28,SW,224,0.0,17.3,26,0.00,,,0.00,VWS V14.00,2013-04-17 23:23:00,
2013-04-17 19:29:00,54.5,21.4,30.29,SW,224,0.0,17.3,27,0.00,,,0.00,VWS V14.00,2013-04-17 23:29:00,
2013-04-17 19:35:00,53.4,21.2,30.28,SW,224,0.0,17.3,28,0.00,,,0.00,VWS V14.00,2013-04-17 23:35:00,
2013-04-17 19:44:00,52.0,22.1,30.29,SW,224,0.0,17.3,31,0.00,,,0.00,VWS V14.00,2013-04-17 23:44:00,
2013-04-17 19:50:00,51.4,22.5,30.29,SW,224,0.0,17.3,32,0.00,,,0.00,VWS V14.00,2013-04-17 23:50:00,
2013-04-17 19:56:00,50.9,23.5,30.29,SW,224,0.0,17.3,34,0.00,,,0.00,VWS V14.00,2013-04-17 23:56:00,
2013-04-17 20:02:00,50.3,24.1,30.29,SW,224,0.0,17.3,36,0.00,,,0.00,VWS V14.00,2013-04-18 00:02:00,
2013-04-17 20:08:00,49.5,23.3,30.29,SW,224,0.0,17.3,36,0.00,,,0.00,VWS V14.00,2013-04-18 00:08:00,
2013-04-17 20:14:00,49.1,23.0,30.29,South,169,0.0,17.3,36,0.00,,,0.00,VWS V14.00,2013-04-18 00:14:00,
2013-04-17 20:20:00,48.7,23.8,30.29,South,169,0.0,17.3,37,0.00,,,0.00,VWS V14.00,2013-04-18 00:20:00,
2013-04-17 20:26:00,48.2,24.4,30.29,SE,145,0.0,17.3,39,0.00,,,0.00,VWS V14.00,2013-04-18 00:26:00,
2013-04-17 20:32:00,47.7,24.1,30.29,SE,145,0.0,17.3,39,0.00,,,0.00,VWS V14.00,2013-04-18 00:32:00,
2013-04-17 20:38:00,47.3,24.9,30.29,SSE,165,6.4,17.3,41,0.00,,,0.00,VWS V14.00,2013-04-18 00:38:00,
2013-04-17 20:45:00,46.9,26.0,30.28,SE,129,0.0,17.3,44,0.00,,,0.00,VWS V14.00,2013-04-18 00:45:00,
2013-04-17 20:51:00,46.5,25.6,30.29,ESE,121,0.0,17.3,44,0.00,,,0.00,VWS V14.00,2013-04-18 00:51:00,
2013-04-17 21:00:00,46.0,25.3,30.29,South,184,0.0,17.3,44,0.00,,,0.00,VWS V14.00,2013-04-18 01:00:00,
2013-04-17 21:06:00,45.8,25.1,30.29,South,184,0.0,17.3,44,0.00,,,0.00,VWS V14.00,2013-04-18 01:06:00,
2013-04-17 21:12:00,45.9,25.2,30.28,South,184,0.0,17.3,44,0.00,,,0.00,VWS V14.00,2013-04-18 01:12:00,
2013-04-17 21:18:00,45.7,24.8,30.28,SE,135,0.0,17.3,44,0.00,,,0.00,VWS V14.00,2013-04-18 01:18:00,
2013-04-17 21:24:00,45.7,24.7,30.28,SE,138,3.5,17.3,43,0.00,,,0.00,VWS V14.00,2013-04-18 01:24:00,
2013-04-17 21:30:00,45.6,24.5,30.28,SSE,162,4.8,17.3,43,0.00,,,0.00,VWS V14.00,2013-04-18 01:30:00,
2013-04-17 21:36:00,45.3,24.1,30.27,SE,139,3.0,17.3,43,0.00,,,0.00,VWS V14.00,2013-04-18 01:36:00,
2013-04-17 21:42:00,45.2,24.0,30.27,East,93,0.0,17.3,43,0.00,,,0.00,VWS V14.00,2013-04-18 01:42:00,
2013-04-17 21:48:00,45.2,23.8,30.27,SE,129,0.0,17.3,43,0.00,,,0.00,VWS V14.00,2013-04-18 01:48:00,
2013-04-17 21:54:00,45.1,23.5,30.28,ESE,103,0.0,17.3,42,0.00,,,0.00,VWS V14.00,2013-04-18 01:54:00,
2013-04-17 22:00:00,45.1,23.8,30.28,SSE,156,0.0,17.3,43,0.00,,,0.00,VWS V14.00,2013-04-18 02:00:00,
2013-04-17 22:06:00,44.8,23.8,30.28,SE,127,0.0,17.3,43,0.00,,,0.00,VWS V14.00,2013-04-18 02:06:00,
2013-04-17 22:12:00,44.5,23.7,30.29,SE,131,0.0,17.3,44,0.00,,,0.00,VWS V14.00,2013-04-18 02:12:00,
2013-04-17 22:19:00,44.5,23.7,30.28,SE,141,3.5,17.3,44,0.00,,,0.00,VWS V14.00,2013-04-18 02:19:00,
2013-04-17 22:25:00,44.3,23.5,30.28,SE,131,0.0,17.3,43,0.00,,,0.00,VWS V14.00,2013-04-18 02:25:00,
2013-04-17 22:31:00,44.1,23.4,30.27,SSE,166,2.5,17.3,44,0.00,,,0.00,VWS V14.00,2013-04-18 02:31:00,
2013-04-17 22:37:00,43.8,23.5,30.28,SE,127,0.0,17.3,44,0.00,,,0.00,VWS V14.00,2013-04-18 02:37:00,
2013-04-17 22:43:00,43.6,24.2,30.28,SSE,162,0.0,17.3,46,0.00,,,0.00,VWS V14.00,2013-04-18 02:43:00,
2013-04-17 22:49:00,43.1,24.0,30.28,SE,127,0.0,17.3,47,0.00,,,0.00,VWS V14.00,2013-04-18 02:49:00,
2013-04-17 22:55:00,42.7,24.2,30.28,South,181,2.1,17.3,48,0.00,,,0.00,VWS V14.00,2013-04-18 02:55:00,
2013-04-17 23:01:00,42.6,24.5,30.28,South,169,0.0,17.3,48,0.00,,,0.00,VWS V14.00,2013-04-18 03:01:00,
2013-04-17 23:07:00,42.4,24.7,30.29,ESE,114,0.0,17.3,49,0.00,,,0.00,VWS V14.00,2013-04-18 03:07:00,
2013-04-17 23:13:00,42.2,24.6,30.30,ESE,114,0.0,17.3,49,0.00,,,0.00,VWS V14.00,2013-04-18 03:13:00,
2013-04-17 23:19:00,42.2,24.8,30.31,ESE,115,4.9,17.3,50,0.00,,,0.00,VWS V14.00,2013-04-18 03:19:00,
2013-04-17 23:25:00,42.4,25.5,30.31,SE,143,7.1,17.3,51,0.00,,,0.00,VWS V14.00,2013-04-18 03:25:00,
2013-04-17 23:31:00,42.3,25.7,30.31,ESE,122,4.2,17.3,51,0.00,,,0.00,VWS V14.00,2013-04-18 03:31:00,
2013-04-17 23:37:00,42.1,25.8,30.31,SE,138,0.0,17.3,52,0.00,,,0.00,VWS V14.00,2013-04-18 03:37:00,
2013-04-17 23:43:00,41.9,25.8,30.31,ESE,121,0.0,17.3,52,0.00,,,0.00,VWS V14.00,2013-04-18 03:43:00,
2013-04-17 23:49:00,41.7,25.7,30.31,ESE,121,0.0,0.0,53,0.00,,,0.00,VWS V14.00,2013-04-18 03:49:00,
2013-04-17 23:50:00,51.7,49.5,30.04,NW,307,7.0,20.5,92,0.00,,,0.00,VWS V14.00,2013-04-18 03:50:00,
2013-04-17 23:55:00,41.6,25.8,30.31,ESE,121,0.0,0.0,53,0.00,,,0.00,VWS V14.00,2013-04-18 03:55:00,